sensor_id;sensor_type;location;lat;lon;timestamp;P1;durP1;ratioP1;P2;durP2;ratioP2
8183;SDS011;4133;48.752;9.088;2023-02-21T00:00:28;8.60;;;2.83;;
8183;SDS011;4133;48.752;9.088;2023-02-21T00:03:12;30.27;;;13.37;;
8183;SDS011;4133;48.752;9.088;2023-02-21T00:05:57;29.03;;;11.67;;
8183;SDS011;4133;48.752;9.088;2023-02-21T00:08:41;15.47;;;6.17;;
8183;SDS011;4133;48.752;9.088;2023-02-21T00:11:26;8.13;;;2.20;;
8183;SDS011;4133;48.752;9.088;2023-02-21T00:14:10;3.80;;;2.00;;
8183;SDS011;4133;48.752;9.088;2023-02-21T00:16:55;3.43;;;1.77;;
8183;SDS011;4133;48.752;9.088;2023-02-21T00:19:39;3.67;;;1.50;;
8183;SDS011;4133;48.752;9.088;2023-02-21T00:22:24;2.83;;;2.20;;
8183;SDS011;4133;48.752;9.088;2023-02-21T00:25:08;5.50;;;2.40;;
8183;SDS011;4133;48.752;9.088;2023-02-21T00:27:53;3.07;;;2.30;;
8183;SDS011;4133;48.752;9.088;2023-02-21T00:30:38;4.20;;;1.87;;
8183;SDS011;4133;48.752;9.088;2023-02-21T00:33:22;5.87;;;2.00;;
8183;SDS011;4133;48.752;9.088;2023-02-21T00:36:07;1.90;;;1.70;;
8183;SDS011;4133;48.752;9.088;2023-02-21T00:38:51;2.50;;;1.63;;
8183;SDS011;4133;48.752;9.088;2023-02-21T00:41:36;4.40;;;1.67;;
8183;SDS011;4133;48.752;9.088;2023-02-21T00:44:21;4.53;;;1.90;;
8183;SDS011;4133;48.752;9.088;2023-02-21T00:47:05;2.83;;;1.90;;
8183;SDS011;4133;48.752;9.088;2023-02-21T00:49:50;4.97;;;1.50;;
8183;SDS011;4133;48.752;9.088;2023-02-21T00:52:34;2.80;;;1.70;;
8183;SDS011;4133;48.752;9.088;2023-02-21T00:55:19;3.50;;;1.67;;
8183;SDS011;4133;48.752;9.088;2023-02-21T00:58:03;5.53;;;1.90;;
8183;SDS011;4133;48.752;9.088;2023-02-21T01:00:48;2.80;;;1.90;;
8183;SDS011;4133;48.752;9.088;2023-02-21T01:03:32;2.70;;;1.83;;
8183;SDS011;4133;48.752;9.088;2023-02-21T01:06:17;2.70;;;1.77;;
8183;SDS011;4133;48.752;9.088;2023-02-21T01:09:02;2.93;;;2.07;;
8183;SDS011;4133;48.752;9.088;2023-02-21T01:11:46;4.07;;;1.77;;
8183;SDS011;4133;48.752;9.088;2023-02-21T01:14:31;2.57;;;1.70;;
8183;SDS011;4133;48.752;9.088;2023-02-21T01:17:15;2.57;;;1.70;;
8183;SDS011;4133;48.752;9.088;2023-02-21T01:20:00;3.80;;;1.70;;
8183;SDS011;4133;48.752;9.088;2023-02-21T01:22:45;3.47;;;1.90;;
8183;SDS011;4133;48.752;9.088;2023-02-21T01:25:30;4.23;;;2.50;;
8183;SDS011;4133;48.752;9.088;2023-02-21T01:28:14;3.97;;;2.87;;
8183;SDS011;4133;48.752;9.088;2023-02-21T01:30:59;2.80;;;1.60;;
8183;SDS011;4133;48.752;9.088;2023-02-21T01:33:43;4.10;;;2.27;;
8183;SDS011;4133;48.752;9.088;2023-02-21T01:36:28;3.50;;;1.80;;
8183;SDS011;4133;48.752;9.088;2023-02-21T01:39:12;3.33;;;2.13;;
8183;SDS011;4133;48.752;9.088;2023-02-21T01:41:57;4.43;;;1.97;;
8183;SDS011;4133;48.752;9.088;2023-02-21T01:44:43;4.80;;;1.83;;
8183;SDS011;4133;48.752;9.088;2023-02-21T01:47:28;4.07;;;2.00;;
8183;SDS011;4133;48.752;9.088;2023-02-21T01:52:58;3.00;;;2.10;;
8183;SDS011;4133;48.752;9.088;2023-02-21T01:55:43;2.70;;;1.50;;
8183;SDS011;4133;48.752;9.088;2023-02-21T01:58:30;2.03;;;1.70;;
8183;SDS011;4133;48.752;9.088;2023-02-21T02:01:19;3.23;;;2.07;;
8183;SDS011;4133;48.752;9.088;2023-02-21T02:04:04;2.17;;;1.87;;
8183;SDS011;4133;48.752;9.088;2023-02-21T02:06:48;2.33;;;1.70;;
8183;SDS011;4133;48.752;9.088;2023-02-21T02:09:33;7.90;;;2.00;;
8183;SDS011;4133;48.752;9.088;2023-02-21T02:15:32;2.73;;;1.90;;
8183;SDS011;4133;48.752;9.088;2023-02-21T02:25:50;6.03;;;2.17;;
8183;SDS011;4133;48.752;9.088;2023-02-21T02:33:44;3.83;;;2.17;;
8183;SDS011;4133;48.752;9.088;2023-02-21T02:36:14;2.97;;;2.10;;
8183;SDS011;4133;48.752;9.088;2023-02-21T02:41:30;6.40;;;2.10;;
8183;SDS011;4133;48.752;9.088;2023-02-21T02:44:01;2.90;;;2.17;;
8183;SDS011;4133;48.752;9.088;2023-02-21T02:46:28;3.80;;;2.23;;
8183;SDS011;4133;48.752;9.088;2023-02-21T02:49:02;6.40;;;2.30;;
8183;SDS011;4133;48.752;9.088;2023-02-21T02:51:29;3.17;;;2.00;;
8183;SDS011;4133;48.752;9.088;2023-02-21T02:53:57;3.83;;;2.00;;
8183;SDS011;4133;48.752;9.088;2023-02-21T02:56:23;2.90;;;2.17;;
8183;SDS011;4133;48.752;9.088;2023-02-21T03:01:46;3.40;;;1.90;;
8183;SDS011;4133;48.752;9.088;2023-02-21T03:12:03;2.97;;;2.03;;
8183;SDS011;4133;48.752;9.088;2023-02-21T03:14:37;3.17;;;2.40;;
8183;SDS011;4133;48.752;9.088;2023-02-21T03:17:07;3.20;;;2.40;;
8183;SDS011;4133;48.752;9.088;2023-02-21T03:19:36;2.57;;;1.90;;
8183;SDS011;4133;48.752;9.088;2023-02-21T03:22:07;3.73;;;2.00;;
8183;SDS011;4133;48.752;9.088;2023-02-21T03:24:34;3.03;;;2.03;;
8183;SDS011;4133;48.752;9.088;2023-02-21T03:27:03;3.93;;;2.23;;
8183;SDS011;4133;48.752;9.088;2023-02-21T03:29:30;4.27;;;2.10;;
8183;SDS011;4133;48.752;9.088;2023-02-21T03:31:59;4.90;;;2.40;;
8183;SDS011;4133;48.752;9.088;2023-02-21T03:34:38;5.20;;;2.80;;
8183;SDS011;4133;48.752;9.088;2023-02-21T03:37:05;3.20;;;2.43;;
8183;SDS011;4133;48.752;9.088;2023-02-21T03:39:32;2.57;;;2.37;;
8183;SDS011;4133;48.752;9.088;2023-02-21T03:41:58;3.17;;;2.07;;
8183;SDS011;4133;48.752;9.088;2023-02-21T03:44:24;4.97;;;2.20;;
8183;SDS011;4133;48.752;9.088;2023-02-21T03:46:50;2.60;;;2.20;;
8183;SDS011;4133;48.752;9.088;2023-02-21T03:49:16;3.77;;;2.17;;
8183;SDS011;4133;48.752;9.088;2023-02-21T03:51:42;3.27;;;2.17;;
8183;SDS011;4133;48.752;9.088;2023-02-21T03:54:08;2.40;;;2.10;;
8183;SDS011;4133;48.752;9.088;2023-02-21T03:56:34;2.50;;;2.10;;
8183;SDS011;4133;48.752;9.088;2023-02-21T03:59:00;4.77;;;2.30;;
8183;SDS011;4133;48.752;9.088;2023-02-21T04:01:26;2.57;;;1.80;;
8183;SDS011;4133;48.752;9.088;2023-02-21T04:03:52;2.43;;;1.90;;
8183;SDS011;4133;48.752;9.088;2023-02-21T04:06:18;2.30;;;2.00;;
8183;SDS011;4133;48.752;9.088;2023-02-21T04:08:43;2.90;;;1.97;;
8183;SDS011;4133;48.752;9.088;2023-02-21T04:11:09;2.50;;;2.17;;
8183;SDS011;4133;48.752;9.088;2023-02-21T04:13:35;4.23;;;2.07;;
8183;SDS011;4133;48.752;9.088;2023-02-21T04:16:02;2.77;;;1.70;;
8183;SDS011;4133;48.752;9.088;2023-02-21T04:18:28;2.97;;;1.90;;
8183;SDS011;4133;48.752;9.088;2023-02-21T04:20:54;2.73;;;1.90;;
8183;SDS011;4133;48.752;9.088;2023-02-21T04:23:20;3.67;;;1.70;;
8183;SDS011;4133;48.752;9.088;2023-02-21T04:25:46;4.07;;;2.10;;
8183;SDS011;4133;48.752;9.088;2023-02-21T04:28:13;3.00;;;1.73;;
8183;SDS011;4133;48.752;9.088;2023-02-21T04:30:39;3.03;;;2.10;;
8183;SDS011;4133;48.752;9.088;2023-02-21T04:33:05;4.03;;;2.10;;
8183;SDS011;4133;48.752;9.088;2023-02-21T04:35:31;4.27;;;2.20;;
8183;SDS011;4133;48.752;9.088;2023-02-21T04:40:47;3.13;;;1.80;;
8183;SDS011;4133;48.752;9.088;2023-02-21T04:43:13;1.73;;;1.63;;
8183;SDS011;4133;48.752;9.088;2023-02-21T04:45:39;3.40;;;2.00;;
8183;SDS011;4133;48.752;9.088;2023-02-21T04:48:05;4.13;;;1.90;;
8183;SDS011;4133;48.752;9.088;2023-02-21T04:50:31;4.60;;;2.30;;
8183;SDS011;4133;48.752;9.088;2023-02-21T04:52:57;2.90;;;1.97;;
8183;SDS011;4133;48.752;9.088;2023-02-21T04:55:23;2.20;;;1.93;;
8183;SDS011;4133;48.752;9.088;2023-02-21T04:57:49;2.50;;;1.73;;
8183;SDS011;4133;48.752;9.088;2023-02-21T05:00:15;2.90;;;1.80;;
8183;SDS011;4133;48.752;9.088;2023-02-21T05:02:41;1.90;;;1.70;;
8183;SDS011;4133;48.752;9.088;2023-02-21T05:05:08;4.80;;;1.70;;
8183;SDS011;4133;48.752;9.088;2023-02-21T05:07:34;2.90;;;2.20;;
8183;SDS011;4133;48.752;9.088;2023-02-21T05:09:59;2.57;;;1.80;;
8183;SDS011;4133;48.752;9.088;2023-02-21T05:12:25;4.57;;;1.87;;
8183;SDS011;4133;48.752;9.088;2023-02-21T05:14:51;2.50;;;2.00;;
8183;SDS011;4133;48.752;9.088;2023-02-21T05:17:17;3.80;;;2.00;;
8183;SDS011;4133;48.752;9.088;2023-02-21T05:19:45;3.00;;;1.87;;
8183;SDS011;4133;48.752;9.088;2023-02-21T05:22:11;2.53;;;1.50;;
8183;SDS011;4133;48.752;9.088;2023-02-21T05:24:39;6.23;;;2.20;;
8183;SDS011;4133;48.752;9.088;2023-02-21T05:27:06;2.03;;;1.83;;
8183;SDS011;4133;48.752;9.088;2023-02-21T05:29:35;4.40;;;1.70;;
8183;SDS011;4133;48.752;9.088;2023-02-21T05:32:01;3.40;;;2.30;;
8183;SDS011;4133;48.752;9.088;2023-02-21T05:34:27;3.93;;;2.00;;
8183;SDS011;4133;48.752;9.088;2023-02-21T05:36:53;2.93;;;2.10;;
8183;SDS011;4133;48.752;9.088;2023-02-21T05:39:19;4.13;;;2.93;;
8183;SDS011;4133;48.752;9.088;2023-02-21T05:41:46;2.40;;;2.10;;
8183;SDS011;4133;48.752;9.088;2023-02-21T05:44:12;3.73;;;2.00;;
8183;SDS011;4133;48.752;9.088;2023-02-21T05:46:38;1.83;;;1.60;;
8183;SDS011;4133;48.752;9.088;2023-02-21T05:49:04;2.37;;;1.83;;
8183;SDS011;4133;48.752;9.088;2023-02-21T05:51:34;5.77;;;2.10;;
8183;SDS011;4133;48.752;9.088;2023-02-21T05:54:01;2.90;;;2.20;;
8183;SDS011;4133;48.752;9.088;2023-02-21T05:56:27;3.73;;;1.80;;
8183;SDS011;4133;48.752;9.088;2023-02-21T05:58:53;2.17;;;1.90;;
8183;SDS011;4133;48.752;9.088;2023-02-21T06:01:18;3.67;;;1.90;;
8183;SDS011;4133;48.752;9.088;2023-02-21T06:03:44;3.00;;;1.80;;
8183;SDS011;4133;48.752;9.088;2023-02-21T06:06:10;3.70;;;1.90;;
8183;SDS011;4133;48.752;9.088;2023-02-21T06:08:46;2.90;;;1.90;;
8183;SDS011;4133;48.752;9.088;2023-02-21T06:11:12;3.43;;;2.20;;
8183;SDS011;4133;48.752;9.088;2023-02-21T06:13:39;3.20;;;2.00;;
8183;SDS011;4133;48.752;9.088;2023-02-21T06:16:06;3.33;;;2.40;;
8183;SDS011;4133;48.752;9.088;2023-02-21T06:18:32;3.33;;;2.03;;
8183;SDS011;4133;48.752;9.088;2023-02-21T06:20:58;2.10;;;1.90;;
8183;SDS011;4133;48.752;9.088;2023-02-21T06:23:24;3.63;;;2.13;;
8183;SDS011;4133;48.752;9.088;2023-02-21T06:25:50;2.73;;;1.80;;
8183;SDS011;4133;48.752;9.088;2023-02-21T06:28:16;3.03;;;1.90;;
8183;SDS011;4133;48.752;9.088;2023-02-21T06:30:42;3.10;;;2.10;;
8183;SDS011;4133;48.752;9.088;2023-02-21T06:33:08;3.57;;;1.90;;
8183;SDS011;4133;48.752;9.088;2023-02-21T06:35:34;3.47;;;1.57;;
8183;SDS011;4133;48.752;9.088;2023-02-21T06:38:04;4.07;;;2.00;;
8183;SDS011;4133;48.752;9.088;2023-02-21T06:40:30;2.80;;;1.67;;
8183;SDS011;4133;48.752;9.088;2023-02-21T06:42:55;3.63;;;1.80;;
8183;SDS011;4133;48.752;9.088;2023-02-21T06:45:22;4.50;;;1.70;;
8183;SDS011;4133;48.752;9.088;2023-02-21T06:47:47;4.47;;;1.93;;
8183;SDS011;4133;48.752;9.088;2023-02-21T06:50:13;4.93;;;2.00;;
8183;SDS011;4133;48.752;9.088;2023-02-21T06:52:39;6.00;;;2.00;;
8183;SDS011;4133;48.752;9.088;2023-02-21T06:55:06;2.13;;;1.50;;
8183;SDS011;4133;48.752;9.088;2023-02-21T06:57:32;3.20;;;2.03;;
8183;SDS011;4133;48.752;9.088;2023-02-21T06:59:58;3.63;;;1.90;;
8183;SDS011;4133;48.752;9.088;2023-02-21T07:02:24;3.73;;;1.90;;
8183;SDS011;4133;48.752;9.088;2023-02-21T07:04:50;3.00;;;1.80;;
8183;SDS011;4133;48.752;9.088;2023-02-21T07:07:16;3.70;;;1.53;;
8183;SDS011;4133;48.752;9.088;2023-02-21T07:09:42;3.50;;;2.10;;
8183;SDS011;4133;48.752;9.088;2023-02-21T07:12:08;3.17;;;1.90;;
8183;SDS011;4133;48.752;9.088;2023-02-21T07:14:34;4.30;;;2.07;;
8183;SDS011;4133;48.752;9.088;2023-02-21T07:17:00;3.27;;;2.03;;
8183;SDS011;4133;48.752;9.088;2023-02-21T07:19:26;2.30;;;1.80;;
8183;SDS011;4133;48.752;9.088;2023-02-21T07:21:52;2.47;;;1.83;;
8183;SDS011;4133;48.752;9.088;2023-02-21T07:24:18;4.23;;;1.90;;
8183;SDS011;4133;48.752;9.088;2023-02-21T07:26:44;2.53;;;1.90;;
8183;SDS011;4133;48.752;9.088;2023-02-21T07:29:10;3.23;;;1.90;;
8183;SDS011;4133;48.752;9.088;2023-02-21T07:31:36;3.57;;;2.20;;
8183;SDS011;4133;48.752;9.088;2023-02-21T07:34:02;2.73;;;1.83;;
8183;SDS011;4133;48.752;9.088;2023-02-21T07:36:28;3.30;;;1.60;;
8183;SDS011;4133;48.752;9.088;2023-02-21T07:38:54;3.93;;;1.90;;
8183;SDS011;4133;48.752;9.088;2023-02-21T07:41:20;3.43;;;2.10;;
8183;SDS011;4133;48.752;9.088;2023-02-21T07:43:46;4.57;;;2.00;;
8183;SDS011;4133;48.752;9.088;2023-02-21T07:46:12;2.93;;;2.00;;
8183;SDS011;4133;48.752;9.088;2023-02-21T07:48:39;4.77;;;1.77;;
8183;SDS011;4133;48.752;9.088;2023-02-21T07:51:05;2.83;;;2.07;;
8183;SDS011;4133;48.752;9.088;2023-02-21T07:53:31;3.23;;;1.70;;
8183;SDS011;4133;48.752;9.088;2023-02-21T07:55:57;3.17;;;2.00;;
8183;SDS011;4133;48.752;9.088;2023-02-21T07:58:23;2.40;;;1.77;;
8183;SDS011;4133;48.752;9.088;2023-02-21T08:00:50;2.30;;;1.50;;
8183;SDS011;4133;48.752;9.088;2023-02-21T08:03:16;3.27;;;1.70;;
8183;SDS011;4133;48.752;9.088;2023-02-21T08:05:42;2.23;;;1.80;;
8183;SDS011;4133;48.752;9.088;2023-02-21T08:08:10;4.37;;;1.80;;
8183;SDS011;4133;48.752;9.088;2023-02-21T08:10:36;3.87;;;1.83;;
8183;SDS011;4133;48.752;9.088;2023-02-21T08:13:03;1.83;;;1.67;;
8183;SDS011;4133;48.752;9.088;2023-02-21T08:15:29;2.83;;;1.70;;
8183;SDS011;4133;48.752;9.088;2023-02-21T08:17:55;2.10;;;1.87;;
8183;SDS011;4133;48.752;9.088;2023-02-21T08:20:21;2.13;;;1.90;;
8183;SDS011;4133;48.752;9.088;2023-02-21T08:22:47;2.30;;;1.60;;
8183;SDS011;4133;48.752;9.088;2023-02-21T08:25:14;3.37;;;1.80;;
8183;SDS011;4133;48.752;9.088;2023-02-21T08:27:40;2.13;;;1.80;;
8183;SDS011;4133;48.752;9.088;2023-02-21T08:30:07;2.88;;;1.80;;
8183;SDS011;4133;48.752;9.088;2023-02-21T08:32:34;4.40;;;1.90;;
8183;SDS011;4133;48.752;9.088;2023-02-21T08:35:00;3.13;;;2.20;;
8183;SDS011;4133;48.752;9.088;2023-02-21T08:37:28;3.33;;;1.80;;
8183;SDS011;4133;48.752;9.088;2023-02-21T08:39:57;4.17;;;2.00;;
8183;SDS011;4133;48.752;9.088;2023-02-21T08:42:23;6.30;;;2.20;;
8183;SDS011;4133;48.752;9.088;2023-02-21T08:44:50;4.07;;;1.83;;
8183;SDS011;4133;48.752;9.088;2023-02-21T08:47:16;3.93;;;1.90;;
8183;SDS011;4133;48.752;9.088;2023-02-21T08:49:43;3.87;;;2.43;;
8183;SDS011;4133;48.752;9.088;2023-02-21T08:52:11;6.97;;;2.20;;
8183;SDS011;4133;48.752;9.088;2023-02-21T08:54:37;6.30;;;2.00;;
8183;SDS011;4133;48.752;9.088;2023-02-21T08:57:03;3.47;;;2.13;;
8183;SDS011;4133;48.752;9.088;2023-02-21T08:59:29;2.43;;;1.90;;
8183;SDS011;4133;48.752;9.088;2023-02-21T09:01:57;4.30;;;1.90;;
8183;SDS011;4133;48.752;9.088;2023-02-21T09:04:23;4.17;;;1.97;;
8183;SDS011;4133;48.752;9.088;2023-02-21T09:06:51;3.07;;;1.97;;
8183;SDS011;4133;48.752;9.088;2023-02-21T09:09:17;2.43;;;1.90;;
8183;SDS011;4133;48.752;9.088;2023-02-21T09:11:44;2.23;;;1.60;;
8183;SDS011;4133;48.752;9.088;2023-02-21T09:14:12;4.13;;;1.70;;
8183;SDS011;4133;48.752;9.088;2023-02-21T09:16:38;6.83;;;2.10;;
8183;SDS011;4133;48.752;9.088;2023-02-21T09:19:04;4.00;;;2.20;;
8183;SDS011;4133;48.752;9.088;2023-02-21T09:21:31;3.30;;;1.50;;
8183;SDS011;4133;48.752;9.088;2023-02-21T09:23:58;2.97;;;1.83;;
8183;SDS011;4133;48.752;9.088;2023-02-21T09:26:26;6.23;;;1.80;;
8183;SDS011;4133;48.752;9.088;2023-02-21T09:28:55;2.33;;;1.33;;
8183;SDS011;4133;48.752;9.088;2023-02-21T09:31:22;4.57;;;1.43;;
8183;SDS011;4133;48.752;9.088;2023-02-21T09:33:48;2.77;;;1.20;;
8183;SDS011;4133;48.752;9.088;2023-02-21T09:36:14;2.63;;;1.20;;
8183;SDS011;4133;48.752;9.088;2023-02-21T09:38:41;7.13;;;1.50;;
8183;SDS011;4133;48.752;9.088;2023-02-21T09:41:08;4.57;;;1.40;;
8183;SDS011;4133;48.752;9.088;2023-02-21T09:46:14;4.23;;;1.40;;
8183;SDS011;4133;48.752;9.088;2023-02-21T09:48:42;1.33;;;1.00;;
8183;SDS011;4133;48.752;9.088;2023-02-21T09:51:09;1.48;;;1.05;;
8183;SDS011;4133;48.752;9.088;2023-02-21T09:53:37;1.10;;;0.93;;
8183;SDS011;4133;48.752;9.088;2023-02-21T09:56:12;1.25;;;1.05;;
8183;SDS011;4133;48.752;9.088;2023-02-21T09:58:40;0.70;;;0.70;;
8183;SDS011;4133;48.752;9.088;2023-02-21T10:04:01;6.00;;;1.10;;
8183;SDS011;4133;48.752;9.088;2023-02-21T10:09:09;1.27;;;1.00;;
8183;SDS011;4133;48.752;9.088;2023-02-21T10:11:47;1.88;;;0.88;;
8183;SDS011;4133;48.752;9.088;2023-02-21T10:16:50;1.30;;;0.98;;
8183;SDS011;4133;48.752;9.088;2023-02-21T10:21:44;1.40;;;0.80;;
8183;SDS011;4133;48.752;9.088;2023-02-21T10:24:12;1.83;;;0.90;;
8183;SDS011;4133;48.752;9.088;2023-02-21T10:26:39;1.10;;;1.00;;
8183;SDS011;4133;48.752;9.088;2023-02-21T10:29:18;1.85;;;0.80;;
8183;SDS011;4133;48.752;9.088;2023-02-21T10:31:45;0.85;;;0.80;;
8183;SDS011;4133;48.752;9.088;2023-02-21T10:34:26;1.58;;;1.10;;
8183;SDS011;4133;48.752;9.088;2023-02-21T10:36:56;3.13;;;0.82;;
8183;SDS011;4133;48.752;9.088;2023-02-21T10:39:28;2.28;;;0.90;;
8183;SDS011;4133;48.752;9.088;2023-02-21T10:41:56;3.20;;;0.93;;
8183;SDS011;4133;48.752;9.088;2023-02-21T10:44:24;1.67;;;0.88;;
8183;SDS011;4133;48.752;9.088;2023-02-21T10:46:59;1.42;;;0.88;;
8183;SDS011;4133;48.752;9.088;2023-02-21T10:49:32;0.80;;;0.70;;
8183;SDS011;4133;48.752;9.088;2023-02-21T10:52:04;9.55;;;1.05;;
8183;SDS011;4133;48.752;9.088;2023-02-21T10:54:30;3.08;;;0.80;;
8183;SDS011;4133;48.752;9.088;2023-02-21T10:56:56;1.27;;;1.00;;
8183;SDS011;4133;48.752;9.088;2023-02-21T10:59:29;2.88;;;0.80;;
8183;SDS011;4133;48.752;9.088;2023-02-21T11:01:55;4.60;;;1.15;;
8183;SDS011;4133;48.752;9.088;2023-02-21T11:04:23;1.80;;;0.90;;
8183;SDS011;4133;48.752;9.088;2023-02-21T11:06:53;1.45;;;0.98;;
8183;SDS011;4133;48.752;9.088;2023-02-21T11:11:58;2.17;;;1.08;;
8183;SDS011;4133;48.752;9.088;2023-02-21T11:14:25;2.83;;;1.50;;
8183;SDS011;4133;48.752;9.088;2023-02-21T11:20:14;3.60;;;1.27;;
8183;SDS011;4133;48.752;9.088;2023-02-21T11:24:59;2.35;;;1.00;;
8183;SDS011;4133;48.752;9.088;2023-02-21T11:27:29;1.27;;;0.90;;
8183;SDS011;4133;48.752;9.088;2023-02-21T11:29:55;4.70;;;0.80;;
8183;SDS011;4133;48.752;9.088;2023-02-21T11:32:24;1.75;;;0.80;;
8183;SDS011;4133;48.752;9.088;2023-02-21T11:34:50;1.15;;;0.80;;
8183;SDS011;4133;48.752;9.088;2023-02-21T11:37:28;3.65;;;1.10;;
8183;SDS011;4133;48.752;9.088;2023-02-21T11:39:56;2.95;;;0.90;;
8183;SDS011;4133;48.752;9.088;2023-02-21T11:42:31;2.63;;;1.20;;
8183;SDS011;4133;48.752;9.088;2023-02-21T11:47:45;1.10;;;1.02;;
8183;SDS011;4133;48.752;9.088;2023-02-21T11:50:27;3.47;;;1.30;;
8183;SDS011;4133;48.752;9.088;2023-02-21T11:53:04;4.35;;;1.67;;
8183;SDS011;4133;48.752;9.088;2023-02-21T11:55:31;5.25;;;2.20;;
8183;SDS011;4133;48.752;9.088;2023-02-21T11:58:05;5.00;;;2.20;;
8183;SDS011;4133;48.752;9.088;2023-02-21T12:03:42;5.55;;;2.15;;
8183;SDS011;4133;48.752;9.088;2023-02-21T12:14:06;4.55;;;2.00;;
8183;SDS011;4133;48.752;9.088;2023-02-21T12:16:40;3.47;;;1.63;;
8183;SDS011;4133;48.752;9.088;2023-02-21T12:19:22;3.10;;;1.77;;
8183;SDS011;4133;48.752;9.088;2023-02-21T12:29:19;3.45;;;1.90;;
8183;SDS011;4133;48.752;9.088;2023-02-21T12:37:52;3.97;;;1.80;;
8183;SDS011;4133;48.752;9.088;2023-02-21T12:46:06;2.55;;;1.38;;
8183;SDS011;4133;48.752;9.088;2023-02-21T12:48:40;4.72;;;2.00;;
8183;SDS011;4133;48.752;9.088;2023-02-21T12:51:07;7.93;;;1.67;;
8183;SDS011;4133;48.752;9.088;2023-02-21T12:56:18;2.90;;;1.50;;
8183;SDS011;4133;48.752;9.088;2023-02-21T12:58:51;2.72;;;1.75;;
8183;SDS011;4133;48.752;9.088;2023-02-21T13:04:17;1.88;;;1.17;;
8183;SDS011;4133;48.752;9.088;2023-02-21T13:06:47;2.60;;;1.40;;
8183;SDS011;4133;48.752;9.088;2023-02-21T13:09:18;4.03;;;1.30;;
8183;SDS011;4133;48.752;9.088;2023-02-21T13:14:44;3.78;;;1.40;;
8183;SDS011;4133;48.752;9.088;2023-02-21T13:17:11;5.75;;;1.58;;
8183;SDS011;4133;48.752;9.088;2023-02-21T13:19:43;3.00;;;1.50;;
8183;SDS011;4133;48.752;9.088;2023-02-21T13:28:26;1.98;;;1.30;;
8183;SDS011;4133;48.752;9.088;2023-02-21T13:33:00;4.50;;;1.40;;
8183;SDS011;4133;48.752;9.088;2023-02-21T13:35:36;1.88;;;1.15;;
8183;SDS011;4133;48.752;9.088;2023-02-21T13:38:06;3.38;;;1.20;;
8183;SDS011;4133;48.752;9.088;2023-02-21T13:40:53;1.00;;;0.98;;
8183;SDS011;4133;48.752;9.088;2023-02-21T13:43:25;4.00;;;1.20;;
8183;SDS011;4133;48.752;9.088;2023-02-21T13:45:53;2.90;;;1.33;;
8183;SDS011;4133;48.752;9.088;2023-02-21T13:50:49;1.30;;;1.10;;
8183;SDS011;4133;48.752;9.088;2023-02-21T13:53:17;1.65;;;1.10;;
8183;SDS011;4133;48.752;9.088;2023-02-21T13:58:32;3.47;;;1.02;;
8183;SDS011;4133;48.752;9.088;2023-02-21T14:03:46;1.02;;;1.00;;
8183;SDS011;4133;48.752;9.088;2023-02-21T14:08:47;2.20;;;0.90;;
8183;SDS011;4133;48.752;9.088;2023-02-21T14:11:15;2.75;;;1.20;;
8183;SDS011;4133;48.752;9.088;2023-02-21T14:13:48;2.63;;;0.85;;
8183;SDS011;4133;48.752;9.088;2023-02-21T14:16:22;7.25;;;1.27;;
8183;SDS011;4133;48.752;9.088;2023-02-21T14:19:50;3.25;;;1.02;;
8183;SDS011;4133;48.752;9.088;2023-02-21T14:24:14;2.28;;;1.00;;
8183;SDS011;4133;48.752;9.088;2023-02-21T14:27:01;4.95;;;1.00;;
8183;SDS011;4133;48.752;9.088;2023-02-21T14:29:40;1.77;;;1.10;;
8183;SDS011;4133;48.752;9.088;2023-02-21T14:37:25;2.00;;;1.20;;
8183;SDS011;4133;48.752;9.088;2023-02-21T14:39:53;1.92;;;0.90;;
8183;SDS011;4133;48.752;9.088;2023-02-21T14:42:38;0.85;;;0.80;;
8183;SDS011;4133;48.752;9.088;2023-02-21T14:50:07;1.13;;;1.00;;
8183;SDS011;4133;48.752;9.088;2023-02-21T14:52:39;2.15;;;1.00;;
8183;SDS011;4133;48.752;9.088;2023-02-21T14:57:38;2.15;;;0.90;;
8183;SDS011;4133;48.752;9.088;2023-02-21T15:02:48;2.33;;;0.80;;
8183;SDS011;4133;48.752;9.088;2023-02-21T15:05:17;4.20;;;0.90;;
8183;SDS011;4133;48.752;9.088;2023-02-21T15:12:44;3.35;;;0.88;;
8183;SDS011;4133;48.752;9.088;2023-02-21T15:15:18;0.70;;;0.70;;
8183;SDS011;4133;48.752;9.088;2023-02-21T15:17:53;1.95;;;0.93;;
8183;SDS011;4133;48.752;9.088;2023-02-21T15:20:20;1.42;;;0.90;;
8183;SDS011;4133;48.752;9.088;2023-02-21T15:22:53;2.03;;;0.85;;
8183;SDS011;4133;48.752;9.088;2023-02-21T15:25:19;0.77;;;0.75;;
8183;SDS011;4133;48.752;9.088;2023-02-21T15:32:37;3.13;;;1.45;;
8183;SDS011;4133;48.752;9.088;2023-02-21T15:35:04;1.73;;;1.15;;
8183;SDS011;4133;48.752;9.088;2023-02-21T15:37:33;1.65;;;1.40;;
8183;SDS011;4133;48.752;9.088;2023-02-21T15:40:01;2.60;;;1.35;;
8183;SDS011;4133;48.752;9.088;2023-02-21T15:42:35;2.45;;;1.40;;
8183;SDS011;4133;48.752;9.088;2023-02-21T15:45:06;2.70;;;1.40;;
8183;SDS011;4133;48.752;9.088;2023-02-21T15:47:32;2.30;;;1.50;;
8183;SDS011;4133;48.752;9.088;2023-02-21T15:52:36;4.75;;;1.63;;
8183;SDS011;4133;48.752;9.088;2023-02-21T15:58:00;2.28;;;1.38;;
8183;SDS011;4133;48.752;9.088;2023-02-21T16:00:31;2.13;;;1.20;;
8183;SDS011;4133;48.752;9.088;2023-02-21T16:05:43;3.78;;;1.45;;
8183;SDS011;4133;48.752;9.088;2023-02-21T16:08:10;4.60;;;1.20;;
8183;SDS011;4133;48.752;9.088;2023-02-21T16:10:38;2.13;;;1.30;;
8183;SDS011;4133;48.752;9.088;2023-02-21T16:13:05;1.98;;;1.52;;
8183;SDS011;4133;48.752;9.088;2023-02-21T16:15:32;3.60;;;1.70;;
8183;SDS011;4133;48.752;9.088;2023-02-21T16:18:00;6.80;;;1.40;;
8183;SDS011;4133;48.752;9.088;2023-02-21T16:20:31;5.95;;;1.90;;
8183;SDS011;4133;48.752;9.088;2023-02-21T16:23:19;3.47;;;1.33;;
8183;SDS011;4133;48.752;9.088;2023-02-21T16:26:01;5.28;;;1.40;;
8183;SDS011;4133;48.752;9.088;2023-02-21T16:28:27;3.13;;;1.33;;
8183;SDS011;4133;48.752;9.088;2023-02-21T16:30:54;3.03;;;1.42;;
8183;SDS011;4133;48.752;9.088;2023-02-21T16:33:22;3.78;;;1.40;;
8183;SDS011;4133;48.752;9.088;2023-02-21T16:35:48;2.20;;;1.40;;
8183;SDS011;4133;48.752;9.088;2023-02-21T16:38:15;2.22;;;1.42;;
8183;SDS011;4133;48.752;9.088;2023-02-21T16:40:42;5.28;;;1.52;;
8183;SDS011;4133;48.752;9.088;2023-02-21T16:43:14;3.40;;;1.50;;
8183;SDS011;4133;48.752;9.088;2023-02-21T16:45:40;6.03;;;1.77;;
8183;SDS011;4133;48.752;9.088;2023-02-21T16:48:09;3.83;;;1.85;;
8183;SDS011;4133;48.752;9.088;2023-02-21T16:50:38;9.00;;;1.67;;
8183;SDS011;4133;48.752;9.088;2023-02-21T16:53:04;5.80;;;1.60;;
8183;SDS011;4133;48.752;9.088;2023-02-21T16:55:30;7.67;;;1.73;;
8183;SDS011;4133;48.752;9.088;2023-02-21T16:58:06;7.18;;;1.60;;
8183;SDS011;4133;48.752;9.088;2023-02-21T17:00:33;4.28;;;1.40;;
8183;SDS011;4133;48.752;9.088;2023-02-21T17:02:59;4.03;;;1.33;;
8183;SDS011;4133;48.752;9.088;2023-02-21T17:05:25;4.17;;;1.30;;
8183;SDS011;4133;48.752;9.088;2023-02-21T17:07:54;3.72;;;1.60;;
8183;SDS011;4133;48.752;9.088;2023-02-21T17:10:22;3.90;;;1.27;;
8183;SDS011;4133;48.752;9.088;2023-02-21T17:12:48;3.23;;;1.57;;
8183;SDS011;4133;48.752;9.088;2023-02-21T17:15:14;6.40;;;1.57;;
8183;SDS011;4133;48.752;9.088;2023-02-21T17:17:40;6.67;;;1.80;;
8183;SDS011;4133;48.752;9.088;2023-02-21T17:20:06;2.55;;;1.80;;
8183;SDS011;4133;48.752;9.088;2023-02-21T17:22:33;2.53;;;1.40;;
8183;SDS011;4133;48.752;9.088;2023-02-21T17:25:00;4.40;;;1.40;;
8183;SDS011;4133;48.752;9.088;2023-02-21T17:27:26;2.73;;;1.70;;
8183;SDS011;4133;48.752;9.088;2023-02-21T17:29:52;2.67;;;1.40;;
8183;SDS011;4133;48.752;9.088;2023-02-21T17:32:18;3.03;;;1.47;;
8183;SDS011;4133;48.752;9.088;2023-02-21T17:34:44;5.93;;;2.37;;
8183;SDS011;4133;48.752;9.088;2023-02-21T17:37:10;5.90;;;1.90;;
8183;SDS011;4133;48.752;9.088;2023-02-21T17:39:36;2.80;;;1.60;;
8183;SDS011;4133;48.752;9.088;2023-02-21T17:42:02;4.83;;;1.43;;
8183;SDS011;4133;48.752;9.088;2023-02-21T17:44:28;3.33;;;1.53;;
8183;SDS011;4133;48.752;9.088;2023-02-21T17:46:55;2.27;;;1.60;;
8183;SDS011;4133;48.752;9.088;2023-02-21T17:49:23;3.00;;;1.40;;
8183;SDS011;4133;48.752;9.088;2023-02-21T17:51:49;5.53;;;1.40;;
8183;SDS011;4133;48.752;9.088;2023-02-21T17:54:16;5.23;;;1.70;;
8183;SDS011;4133;48.752;9.088;2023-02-21T17:56:42;3.97;;;1.90;;
8183;SDS011;4133;48.752;9.088;2023-02-21T17:59:09;7.13;;;1.80;;
8183;SDS011;4133;48.752;9.088;2023-02-21T18:01:35;3.90;;;1.57;;
8183;SDS011;4133;48.752;9.088;2023-02-21T18:04:01;4.80;;;1.80;;
8183;SDS011;4133;48.752;9.088;2023-02-21T18:06:27;7.77;;;2.10;;